sensor_id;sensor_type;location;lat;lon;timestamp;P1;durP1;ratioP1;P2;durP2;ratioP2
80578;SDS011;69939;52.402;6.608;2024-02-15T00:00:06;0.60;;;0.60;;
80578;SDS011;69939;52.402;6.608;2024-02-15T00:02:36;0.00;;;0.00;;
80578;SDS011;69939;52.402;6.608;2024-02-15T00:07:39;0.00;;;0.00;;
80578;SDS011;69939;52.402;6.608;2024-02-15T00:10:09;0.40;;;0.40;;
80578;SDS011;69939;52.402;6.608;2024-02-15T00:12:39;0.63;;;0.63;;
80578;SDS011;69939;52.402;6.608;2024-02-15T00:15:09;1.00;;;1.00;;
80578;SDS011;69939;52.402;6.608;2024-02-15T00:17:39;0.57;;;0.57;;
80578;SDS011;69939;52.402;6.608;2024-02-15T00:20:08;0.00;;;0.00;;
80578;SDS011;69939;52.402;6.608;2024-02-15T00:22:45;0.00;;;0.00;;
80578;SDS011;69939;52.402;6.608;2024-02-15T00:25:15;1.02;;;1.02;;
80578;SDS011;69939;52.402;6.608;2024-02-15T00:27:45;0.75;;;0.75;;
80578;SDS011;69939;52.402;6.608;2024-02-15T00:30:16;0.20;;;0.20;;
80578;SDS011;69939;52.402;6.608;2024-02-15T00:32:46;0.03;;;0.03;;
80578;SDS011;69939;52.402;6.608;2024-02-15T00:35:16;0.77;;;0.77;;
80578;SDS011;69939;52.402;6.608;2024-02-15T00:37:48;0.00;;;0.00;;
80578;SDS011;69939;52.402;6.608;2024-02-15T00:40:18;0.00;;;0.00;;
80578;SDS011;69939;52.402;6.608;2024-02-15T00:42:47;0.20;;;0.20;;
80578;SDS011;69939;52.402;6.608;2024-02-15T00:45:17;0.00;;;0.00;;
80578;SDS011;69939;52.402;6.608;2024-02-15T00:47:46;0.08;;;0.08;;
80578;SDS011;69939;52.402;6.608;2024-02-15T00:52:48;0.20;;;0.20;;
80578;SDS011;69939;52.402;6.608;2024-02-15T00:55:18;1.33;;;0.75;;
80578;SDS011;69939;52.402;6.608;2024-02-15T00:57:48;0.00;;;0.00;;
80578;SDS011;69939;52.402;6.608;2024-02-15T01:00:17;0.03;;;0.03;;
80578;SDS011;69939;52.402;6.608;2024-02-15T01:02:47;0.10;;;0.10;;
80578;SDS011;69939;52.402;6.608;2024-02-15T01:05:18;0.00;;;0.00;;
80578;SDS011;69939;52.402;6.608;2024-02-15T01:07:52;0.32;;;0.32;;
80578;SDS011;69939;52.402;6.608;2024-02-15T01:10:21;0.52;;;0.45;;
80578;SDS011;69939;52.402;6.608;2024-02-15T01:12:51;2.30;;;0.85;;
80578;SDS011;69939;52.402;6.608;2024-02-15T01:15:26;0.05;;;0.05;;
80578;SDS011;69939;52.402;6.608;2024-02-15T01:17:55;0.00;;;0.00;;
80578;SDS011;69939;52.402;6.608;2024-02-15T01:20:25;0.00;;;0.00;;
80578;SDS011;69939;52.402;6.608;2024-02-15T01:22:57;0.00;;;0.00;;
80578;SDS011;69939;52.402;6.608;2024-02-15T01:25:26;0.00;;;0.00;;
80578;SDS011;69939;52.402;6.608;2024-02-15T01:27:56;0.00;;;0.00;;
80578;SDS011;69939;52.402;6.608;2024-02-15T01:30:27;0.50;;;0.50;;
80578;SDS011;69939;52.402;6.608;2024-02-15T01:32:57;1.30;;;0.60;;
80578;SDS011;69939;52.402;6.608;2024-02-15T01:35:26;0.00;;;0.00;;
80578;SDS011;69939;52.402;6.608;2024-02-15T01:37:59;0.98;;;0.98;;
80578;SDS011;69939;52.402;6.608;2024-02-15T01:40:28;0.00;;;0.00;;
80578;SDS011;69939;52.402;6.608;2024-02-15T01:45:27;0.00;;;0.00;;
80578;SDS011;69939;52.402;6.608;2024-02-15T01:47:59;0.10;;;0.10;;
80578;SDS011;69939;52.402;6.608;2024-02-15T01:50:31;0.32;;;0.32;;
80578;SDS011;69939;52.402;6.608;2024-02-15T01:53:06;0.63;;;0.63;;
80578;SDS011;69939;52.402;6.608;2024-02-15T01:55:38;0.80;;;0.75;;
80578;SDS011;69939;52.402;6.608;2024-02-15T01:58:08;0.75;;;0.65;;
80578;SDS011;69939;52.402;6.608;2024-02-15T02:00:37;0.00;;;0.00;;
80578;SDS011;69939;52.402;6.608;2024-02-15T02:03:07;0.52;;;0.52;;
80578;SDS011;69939;52.402;6.608;2024-02-15T02:05:42;0.05;;;0.05;;
80578;SDS011;69939;52.402;6.608;2024-02-15T02:08:14;0.77;;;0.38;;
80578;SDS011;69939;52.402;6.608;2024-02-15T02:10:44;0.22;;;0.22;;
80578;SDS011;69939;52.402;6.608;2024-02-15T02:13:17;0.45;;;0.45;;
80578;SDS011;69939;52.402;6.608;2024-02-15T02:15:47;0.30;;;0.30;;
80578;SDS011;69939;52.402;6.608;2024-02-15T02:18:17;0.70;;;0.70;;
80578;SDS011;69939;52.402;6.608;2024-02-15T02:23:18;0.00;;;0.00;;
80578;SDS011;69939;52.402;6.608;2024-02-15T02:25:59;0.00;;;0.00;;
80578;SDS011;69939;52.402;6.608;2024-02-15T02:28:29;0.15;;;0.15;;
80578;SDS011;69939;52.402;6.608;2024-02-15T02:30:58;0.00;;;0.00;;
80578;SDS011;69939;52.402;6.608;2024-02-15T02:33:29;5.82;;;1.55;;
80578;SDS011;69939;52.402;6.608;2024-02-15T02:36:00;0.00;;;0.00;;
80578;SDS011;69939;52.402;6.608;2024-02-15T02:38:35;0.00;;;0.00;;
80578;SDS011;69939;52.402;6.608;2024-02-15T02:41:08;0.00;;;0.00;;
80578;SDS011;69939;52.402;6.608;2024-02-15T02:43:40;0.30;;;0.30;;
80578;SDS011;69939;52.402;6.608;2024-02-15T02:46:10;1.33;;;1.25;;
80578;SDS011;69939;52.402;6.608;2024-02-15T02:48:40;0.03;;;0.03;;
80578;SDS011;69939;52.402;6.608;2024-02-15T02:51:10;0.00;;;0.00;;
80578;SDS011;69939;52.402;6.608;2024-02-15T02:53:44;0.00;;;0.00;;
80578;SDS011;69939;52.402;6.608;2024-02-15T02:56:18;1.00;;;0.90;;
80578;SDS011;69939;52.402;6.608;2024-02-15T02:58:48;1.00;;;0.68;;
80578;SDS011;69939;52.402;6.608;2024-02-15T03:01:18;3.40;;;3.13;;
80578;SDS011;69939;52.402;6.608;2024-02-15T03:03:51;0.45;;;0.45;;
80578;SDS011;69939;52.402;6.608;2024-02-15T03:06:21;1.05;;;1.05;;
80578;SDS011;69939;52.402;6.608;2024-02-15T03:08:51;0.75;;;0.75;;
80578;SDS011;69939;52.402;6.608;2024-02-15T03:11:24;0.43;;;0.43;;
80578;SDS011;69939;52.402;6.608;2024-02-15T03:13:56;0.98;;;0.98;;
80578;SDS011;69939;52.402;6.608;2024-02-15T03:18:54;1.20;;;1.20;;
80578;SDS011;69939;52.402;6.608;2024-02-15T03:21:26;0.50;;;0.28;;
80578;SDS011;69939;52.402;6.608;2024-02-15T03:24:04;0.17;;;0.17;;
80578;SDS011;69939;52.402;6.608;2024-02-15T03:26:34;0.10;;;0.10;;
80578;SDS011;69939;52.402;6.608;2024-02-15T03:29:05;1.17;;;1.08;;
80578;SDS011;69939;52.402;6.608;2024-02-15T03:31:36;0.00;;;0.00;;
80578;SDS011;69939;52.402;6.608;2024-02-15T03:34:05;0.50;;;0.50;;
80578;SDS011;69939;52.402;6.608;2024-02-15T03:36:36;0.52;;;0.52;;
80578;SDS011;69939;52.402;6.608;2024-02-15T03:39:11;1.17;;;1.17;;
80578;SDS011;69939;52.402;6.608;2024-02-15T03:41:42;0.85;;;0.85;;
80578;SDS011;69939;52.402;6.608;2024-02-15T03:44:12;0.93;;;0.93;;
80578;SDS011;69939;52.402;6.608;2024-02-15T03:46:43;1.40;;;1.40;;
80578;SDS011;69939;52.402;6.608;2024-02-15T03:49:16;0.43;;;0.43;;
80578;SDS011;69939;52.402;6.608;2024-02-15T03:51:48;2.05;;;0.98;;
80578;SDS011;69939;52.402;6.608;2024-02-15T03:54:22;0.73;;;0.73;;
80578;SDS011;69939;52.402;6.608;2024-02-15T03:56:52;2.80;;;1.55;;
80578;SDS011;69939;52.402;6.608;2024-02-15T03:59:22;2.65;;;1.85;;
80578;SDS011;69939;52.402;6.608;2024-02-15T04:01:53;4.05;;;2.65;;
80578;SDS011;69939;52.402;6.608;2024-02-15T04:04:23;2.28;;;2.08;;
80578;SDS011;69939;52.402;6.608;2024-02-15T04:06:57;7.03;;;3.83;;
80578;SDS011;69939;52.402;6.608;2024-02-15T04:09:29;5.47;;;3.72;;
80578;SDS011;69939;52.402;6.608;2024-02-15T04:12:00;7.65;;;4.18;;
80578;SDS011;69939;52.402;6.608;2024-02-15T04:14:32;5.82;;;4.22;;
80578;SDS011;69939;52.402;6.608;2024-02-15T04:17:03;7.68;;;5.30;;
80578;SDS011;69939;52.402;6.608;2024-02-15T04:19:34;8.73;;;6.20;;
80578;SDS011;69939;52.402;6.608;2024-02-15T04:22:09;8.45;;;4.57;;
80578;SDS011;69939;52.402;6.608;2024-02-15T04:24:38;6.72;;;3.15;;
80578;SDS011;69939;52.402;6.608;2024-02-15T04:27:08;8.32;;;4.90;;
80578;SDS011;69939;52.402;6.608;2024-02-15T04:29:38;6.70;;;4.45;;
80578;SDS011;69939;52.402;6.608;2024-02-15T04:32:09;9.20;;;5.07;;
80578;SDS011;69939;52.402;6.608;2024-02-15T04:34:39;9.95;;;6.28;;
80578;SDS011;69939;52.402;6.608;2024-02-15T04:37:13;8.82;;;5.55;;
80578;SDS011;69939;52.402;6.608;2024-02-15T04:39:43;7.38;;;4.82;;
80578;SDS011;69939;52.402;6.608;2024-02-15T04:42:13;10.07;;;6.15;;
80578;SDS011;69939;52.402;6.608;2024-02-15T04:44:43;12.82;;;6.40;;
80578;SDS011;69939;52.402;6.608;2024-02-15T04:47:13;15.88;;;6.45;;
80578;SDS011;69939;52.402;6.608;2024-02-15T04:49:43;13.07;;;5.60;;
80578;SDS011;69939;52.402;6.608;2024-02-15T04:54:45;11.45;;;5.90;;
80578;SDS011;69939;52.402;6.608;2024-02-15T04:59:43;12.77;;;6.65;;
80578;SDS011;69939;52.402;6.608;2024-02-15T05:02:13;7.80;;;5.18;;
80578;SDS011;69939;52.402;6.608;2024-02-15T05:04:45;8.57;;;5.25;;
80578;SDS011;69939;52.402;6.608;2024-02-15T05:07:17;9.73;;;6.38;;
80578;SDS011;69939;52.402;6.608;2024-02-15T05:09:47;5.43;;;3.30;;
80578;SDS011;69939;52.402;6.608;2024-02-15T05:12:21;12.63;;;6.72;;
80578;SDS011;69939;52.402;6.608;2024-02-15T05:14:52;8.52;;;4.70;;
80578;SDS011;69939;52.402;6.608;2024-02-15T05:17:22;12.38;;;6.25;;
80578;SDS011;69939;52.402;6.608;2024-02-15T05:19:53;6.40;;;4.28;;
80578;SDS011;69939;52.402;6.608;2024-02-15T05:22:28;10.38;;;5.97;;
80578;SDS011;69939;52.402;6.608;2024-02-15T05:25:01;7.88;;;4.65;;
80578;SDS011;69939;52.402;6.608;2024-02-15T05:27:30;10.30;;;5.82;;
80578;SDS011;69939;52.402;6.608;2024-02-15T05:30:01;7.95;;;3.75;;
80578;SDS011;69939;52.402;6.608;2024-02-15T05:32:34;8.32;;;3.45;;
80578;SDS011;69939;52.402;6.608;2024-02-15T05:35:10;5.95;;;3.63;;
80578;SDS011;69939;52.402;6.608;2024-02-15T05:37:42;6.32;;;3.85;;
80578;SDS011;69939;52.402;6.608;2024-02-15T05:40:14;6.35;;;3.90;;
80578;SDS011;69939;52.402;6.608;2024-02-15T05:42:44;9.75;;;5.50;;
80578;SDS011;69939;52.402;6.608;2024-02-15T05:45:28;2.78;;;2.25;;
80578;SDS011;69939;52.402;6.608;2024-02-15T05:48:00;10.30;;;4.03;;
80578;SDS011;69939;52.402;6.608;2024-02-15T05:50:36;7.40;;;3.80;;
80578;SDS011;69939;52.402;6.608;2024-02-15T05:53:05;9.70;;;5.57;;
80578;SDS011;69939;52.402;6.608;2024-02-15T05:55:36;8.40;;;6.00;;
80578;SDS011;69939;52.402;6.608;2024-02-15T05:58:09;4.40;;;3.08;;
80578;SDS011;69939;52.402;6.608;2024-02-15T06:00:39;9.88;;;3.42;;
80578;SDS011;69939;52.402;6.608;2024-02-15T06:03:09;12.00;;;6.43;;
80578;SDS011;69939;52.402;6.608;2024-02-15T06:05:44;8.95;;;5.00;;
80578;SDS011;69939;52.402;6.608;2024-02-15T06:08:14;13.20;;;4.35;;
80578;SDS011;69939;52.402;6.608;2024-02-15T06:10:45;9.15;;;5.95;;
80578;SDS011;69939;52.402;6.608;2024-02-15T06:13:15;12.07;;;6.28;;
80578;SDS011;69939;52.402;6.608;2024-02-15T06:15:45;9.10;;;4.47;;
80578;SDS011;69939;52.402;6.608;2024-02-15T06:18:18;8.55;;;3.75;;
80578;SDS011;69939;52.402;6.608;2024-02-15T06:20:52;7.93;;;3.83;;
80578;SDS011;69939;52.402;6.608;2024-02-15T06:23:22;12.95;;;5.47;;
80578;SDS011;69939;52.402;6.608;2024-02-15T06:25:55;7.82;;;4.32;;
80578;SDS011;69939;52.402;6.608;2024-02-15T06:28:26;11.60;;;6.43;;
80578;SDS011;69939;52.402;6.608;2024-02-15T06:33:48;11.75;;;4.68;;
80578;SDS011;69939;52.402;6.608;2024-02-15T06:36:32;10.48;;;6.32;;
80578;SDS011;69939;52.402;6.608;2024-02-15T06:39:13;17.42;;;6.32;;
80578;SDS011;69939;52.402;6.608;2024-02-15T06:44:23;7.53;;;3.65;;
80578;SDS011;69939;52.402;6.608;2024-02-15T06:49:23;6.22;;;3.75;;
80578;SDS011;69939;52.402;6.608;2024-02-15T06:51:55;5.38;;;3.42;;
80578;SDS011;69939;52.402;6.608;2024-02-15T06:54:27;7.45;;;5.03;;
80578;SDS011;69939;52.402;6.608;2024-02-15T06:56:56;5.70;;;3.60;;
80578;SDS011;69939;52.402;6.608;2024-02-15T06:59:28;4.25;;;2.55;;
80578;SDS011;69939;52.402;6.608;2024-02-15T07:01:57;6.07;;;2.85;;
80578;SDS011;69939;52.402;6.608;2024-02-15T07:04:29;4.43;;;2.20;;
80578;SDS011;69939;52.402;6.608;2024-02-15T07:07:02;2.33;;;1.50;;
80578;SDS011;69939;52.402;6.608;2024-02-15T07:09:32;4.22;;;2.55;;
80578;SDS011;69939;52.402;6.608;2024-02-15T07:14:30;1.85;;;1.23;;
80578;SDS011;69939;52.402;6.608;2024-02-15T07:16:59;2.97;;;2.13;;
80578;SDS011;69939;52.402;6.608;2024-02-15T07:19:29;5.55;;;2.53;;
80578;SDS011;69939;52.402;6.608;2024-02-15T07:22:04;1.23;;;0.95;;
80578;SDS011;69939;52.402;6.608;2024-02-15T07:24:35;1.70;;;1.23;;
80578;SDS011;69939;52.402;6.608;2024-02-15T07:27:04;4.75;;;3.15;;
80578;SDS011;69939;52.402;6.608;2024-02-15T07:29:35;2.67;;;1.83;;
80578;SDS011;69939;52.402;6.608;2024-02-15T07:32:05;1.23;;;1.13;;
80578;SDS011;69939;52.402;6.608;2024-02-15T07:34:35;2.90;;;1.83;;
80578;SDS011;69939;52.402;6.608;2024-02-15T07:37:09;5.43;;;2.30;;
80578;SDS011;69939;52.402;6.608;2024-02-15T07:39:38;2.97;;;2.20;;
80578;SDS011;69939;52.402;6.608;2024-02-15T07:42:07;1.27;;;0.65;;
80578;SDS011;69939;52.402;6.608;2024-02-15T07:44:43;3.90;;;2.40;;
80578;SDS011;69939;52.402;6.608;2024-02-15T07:47:12;2.38;;;1.75;;
80578;SDS011;69939;52.402;6.608;2024-02-15T07:49:45;2.42;;;1.80;;
80578;SDS011;69939;52.402;6.608;2024-02-15T07:52:14;2.67;;;1.88;;
80578;SDS011;69939;52.402;6.608;2024-02-15T07:54:44;1.63;;;0.98;;
80578;SDS011;69939;52.402;6.608;2024-02-15T07:57:13;3.30;;;1.58;;
80578;SDS011;69939;52.402;6.608;2024-02-15T08:02:13;2.85;;;1.92;;
80578;SDS011;69939;52.402;6.608;2024-02-15T08:04:48;3.10;;;2.03;;
80578;SDS011;69939;52.402;6.608;2024-02-15T08:07:19;13.32;;;2.97;;
80578;SDS011;69939;52.402;6.608;2024-02-15T08:09:48;3.25;;;2.15;;
80578;SDS011;69939;52.402;6.608;2024-02-15T08:12:19;2.60;;;1.70;;
80578;SDS011;69939;52.402;6.608;2024-02-15T08:14:49;3.72;;;2.42;;
80578;SDS011;69939;52.402;6.608;2024-02-15T08:17:19;3.10;;;1.70;;
80578;SDS011;69939;52.402;6.608;2024-02-15T08:22:21;4.15;;;2.00;;
80578;SDS011;69939;52.402;6.608;2024-02-15T08:24:51;1.27;;;1.05;;
80578;SDS011;69939;52.402;6.608;2024-02-15T08:27:21;1.55;;;0.98;;
80578;SDS011;69939;52.402;6.608;2024-02-15T08:29:51;3.25;;;2.08;;
80578;SDS011;69939;52.402;6.608;2024-02-15T08:34:52;1.42;;;1.02;;
80578;SDS011;69939;52.402;6.608;2024-02-15T08:37:21;3.08;;;1.92;;
80578;SDS011;69939;52.402;6.608;2024-02-15T08:39:51;1.42;;;0.75;;
80578;SDS011;69939;52.402;6.608;2024-02-15T08:42:21;3.35;;;1.40;;
80578;SDS011;69939;52.402;6.608;2024-02-15T08:47:20;2.55;;;1.65;;
80578;SDS011;69939;52.402;6.608;2024-02-15T08:49:52;1.55;;;0.95;;
80578;SDS011;69939;52.402;6.608;2024-02-15T08:52:22;0.85;;;0.82;;
80578;SDS011;69939;52.402;6.608;2024-02-15T08:54:52;0.75;;;0.75;;
80578;SDS011;69939;52.402;6.608;2024-02-15T08:57:22;0.25;;;0.25;;
80578;SDS011;69939;52.402;6.608;2024-02-15T08:59:53;0.00;;;0.00;;
80578;SDS011;69939;52.402;6.608;2024-02-15T09:04:54;0.17;;;0.17;;
80578;SDS011;69939;52.402;6.608;2024-02-15T09:07:24;0.00;;;0.00;;
80578;SDS011;69939;52.402;6.608;2024-02-15T09:09:54;0.22;;;0.22;;
80578;SDS011;69939;52.402;6.608;2024-02-15T09:12:23;0.00;;;0.00;;
80578;SDS011;69939;52.402;6.608;2024-02-15T09:14:53;0.05;;;0.05;;
80578;SDS011;69939;52.402;6.608;2024-02-15T09:17:24;0.20;;;0.20;;
80578;SDS011;69939;52.402;6.608;2024-02-15T09:19:59;0.10;;;0.10;;
80578;SDS011;69939;52.402;6.608;2024-02-15T09:22:28;0.00;;;0.00;;
80578;SDS011;69939;52.402;6.608;2024-02-15T09:27:32;0.00;;;0.00;;
80578;SDS011;69939;52.402;6.608;2024-02-15T09:30:02;0.00;;;0.00;;
80578;SDS011;69939;52.402;6.608;2024-02-15T09:32:34;0.00;;;0.00;;
80578;SDS011;69939;52.402;6.608;2024-02-15T09:35:04;0.73;;;0.73;;
80578;SDS011;69939;52.402;6.608;2024-02-15T09:37:37;0.10;;;0.10;;
80578;SDS011;69939;52.402;6.608;2024-02-15T09:40:12;0.10;;;0.10;;
80578;SDS011;69939;52.402;6.608;2024-02-15T09:42:46;0.98;;;0.85;;
80578;SDS011;69939;52.402;6.608;2024-02-15T09:45:16;0.00;;;0.00;;
80578;SDS011;69939;52.402;6.608;2024-02-15T09:47:46;0.00;;;0.00;;
80578;SDS011;69939;52.402;6.608;2024-02-15T09:50:18;0.00;;;0.00;;
80578;SDS011;69939;52.402;6.608;2024-02-15T09:52:50;0.00;;;0.00;;
80578;SDS011;69939;52.402;6.608;2024-02-15T09:55:21;0.00;;;0.00;;
80578;SDS011;69939;52.402;6.608;2024-02-15T09:57:55;0.05;;;0.05;;
80578;SDS011;69939;52.402;6.608;2024-02-15T10:00:25;0.00;;;0.00;;
80578;SDS011;69939;52.402;6.608;2024-02-15T10:03:00;0.00;;;0.00;;
80578;SDS011;69939;52.402;6.608;2024-02-15T10:05:34;0.15;;;0.15;;
80578;SDS011;69939;52.402;6.608;2024-02-15T10:08:05;0.00;;;0.00;;
80578;SDS011;69939;52.402;6.608;2024-02-15T10:10:36;0.73;;;0.73;;
80578;SDS011;69939;52.402;6.608;2024-02-15T10:13:10;0.20;;;0.20;;
80578;SDS011;69939;52.402;6.608;2024-02-15T10:15:42;0.00;;;0.00;;
80578;SDS011;69939;52.402;6.608;2024-02-15T10:18:15;0.22;;;0.22;;
80578;SDS011;69939;52.402;6.608;2024-02-15T10:20:57;0.00;;;0.00;;
80578;SDS011;69939;52.402;6.608;2024-02-15T10:23:27;0.00;;;0.00;;
80578;SDS011;69939;52.402;6.608;2024-02-15T10:25:56;0.00;;;0.00;;
80578;SDS011;69939;52.402;6.608;2024-02-15T10:28:27;0.00;;;0.00;;
80578;SDS011;69939;52.402;6.608;2024-02-15T10:30:57;0.10;;;0.10;;
80578;SDS011;69939;52.402;6.608;2024-02-15T10:33:41;1.15;;;0.52;;
80578;SDS011;69939;52.402;6.608;2024-02-15T10:36:11;1.10;;;1.00;;
80578;SDS011;69939;52.402;6.608;2024-02-15T10:38:42;0.00;;;0.00;;
80578;SDS011;69939;52.402;6.608;2024-02-15T10:41:11;0.73;;;0.73;;
80578;SDS011;69939;52.402;6.608;2024-02-15T10:43:41;0.00;;;0.00;;
80578;SDS011;69939;52.402;6.608;2024-02-15T10:46:13;0.00;;;0.00;;
80578;SDS011;69939;52.402;6.608;2024-02-15T10:48:47;0.00;;;0.00;;
80578;SDS011;69939;52.402;6.608;2024-02-15T10:51:16;0.05;;;0.05;;
80578;SDS011;69939;52.402;6.608;2024-02-15T10:53:47;0.20;;;0.20;;
80578;SDS011;69939;52.402;6.608;2024-02-15T10:56:33;0.00;;;0.00;;
80578;SDS011;69939;52.402;6.608;2024-02-15T10:59:10;0.00;;;0.00;;
80578;SDS011;69939;52.402;6.608;2024-02-15T11:01:49;0.00;;;0.00;;
80578;SDS011;69939;52.402;6.608;2024-02-15T11:04:32;0.00;;;0.00;;
80578;SDS011;69939;52.402;6.608;2024-02-15T11:07:04;0.00;;;0.00;;
80578;SDS011;69939;52.402;6.608;2024-02-15T11:09:36;0.00;;;0.00;;
80578;SDS011;69939;52.402;6.608;2024-02-15T11:12:07;0.00;;;0.00;;
80578;SDS011;69939;52.402;6.608;2024-02-15T11:14:37;0.05;;;0.05;;
80578;SDS011;69939;52.402;6.608;2024-02-15T11:17:06;0.35;;;0.35;;
80578;SDS011;69939;52.402;6.608;2024-02-15T11:19:47;0.10;;;0.10;;
80578;SDS011;69939;52.402;6.608;2024-02-15T11:22:17;0.10;;;0.10;;
80578;SDS011;69939;52.402;6.608;2024-02-15T11:24:52;0.50;;;0.40;;
80578;SDS011;69939;52.402;6.608;2024-02-15T11:27:26;0.00;;;0.00;;
80578;SDS011;69939;52.402;6.608;2024-02-15T11:29:57;0.00;;;0.00;;
80578;SDS011;69939;52.402;6.608;2024-02-15T11:32:35;0.00;;;0.00;;
80578;SDS011;69939;52.402;6.608;2024-02-15T11:35:09;0.00;;;0.00;;
80578;SDS011;69939;52.402;6.608;2024-02-15T11:37:52;0.00;;;0.00;;
80578;SDS011;69939;52.402;6.608;2024-02-15T11:43:48;0.00;;;0.00;;
80578;SDS011;69939;52.402;6.608;2024-02-15T11:46:26;0.00;;;0.00;;
80578;SDS011;69939;52.402;6.608;2024-02-15T11:48:59;0.08;;;0.08;;
80578;SDS011;69939;52.402;6.608;2024-02-15T11:51:30;0.00;;;0.00;;
80578;SDS011;69939;52.402;6.608;2024-02-15T11:54:05;0.00;;;0.00;;
80578;SDS011;69939;52.402;6.608;2024-02-15T11:56:55;0.00;;;0.00;;
80578;SDS011;69939;52.402;6.608;2024-02-15T11:59:41;0.08;;;0.08;;
80578;SDS011;69939;52.402;6.608;2024-02-15T12:02:19;0.10;;;0.10;;
80578;SDS011;69939;52.402;6.608;2024-02-15T12:05:00;0.00;;;0.00;;
80578;SDS011;69939;52.402;6.608;2024-02-15T12:07:43;0.00;;;0.00;;
80578;SDS011;69939;52.402;6.608;2024-02-15T12:10:25;0.00;;;0.00;;
80578;SDS011;69939;52.402;6.608;2024-02-15T12:15:56;0.00;;;0.00;;
80578;SDS011;69939;52.402;6.608;2024-02-15T12:18:38;0.00;;;0.00;;
80578;SDS011;69939;52.402;6.608;2024-02-15T12:21:14;0.00;;;0.00;;
80578;SDS011;69939;52.402;6.608;2024-02-15T12:23:48;0.00;;;0.00;;
80578;SDS011;69939;52.402;6.608;2024-02-15T12:26:18;0.30;;;0.30;;
80578;SDS011;69939;52.402;6.608;2024-02-15T12:28:53;1.35;;;0.47;;
80578;SDS011;69939;52.402;6.608;2024-02-15T12:31:23;1.05;;;0.50;;
80578;SDS011;69939;52.402;6.608;2024-02-15T12:34:00;3.00;;;0.57;;
80578;SDS011;69939;52.402;6.608;2024-02-15T12:36:31;1.08;;;0.77;;
80578;SDS011;69939;52.402;6.608;2024-02-15T12:39:02;1.55;;;1.10;;
80578;SDS011;69939;52.402;6.608;2024-02-15T12:41:38;1.35;;;0.77;;
80578;SDS011;69939;52.402;6.608;2024-02-15T12:44:11;1.45;;;0.82;;
80578;SDS011;69939;52.402;6.608;2024-02-15T12:46:45;1.73;;;0.60;;
80578;SDS011;69939;52.402;6.608;2024-02-15T12:49:27;1.55;;;1.10;;
80578;SDS011;69939;52.402;6.608;2024-02-15T12:55:09;1.02;;;0.60;;
80578;SDS011;69939;52.402;6.608;2024-02-15T12:57:43;1.40;;;1.02;;
80578;SDS011;69939;52.402;6.608;2024-02-15T13:00:20;1.35;;;1.25;;
80578;SDS011;69939;52.402;6.608;2024-02-15T13:02:53;1.48;;;1.08;;
80578;SDS011;69939;52.402;6.608;2024-02-15T13:05:25;2.60;;;1.08;;
80578;SDS011;69939;52.402;6.608;2024-02-15T13:08:01;1.05;;;0.85;;
80578;SDS011;69939;52.402;6.608;2024-02-15T13:10:35;0.75;;;0.65;;
80578;SDS011;69939;52.402;6.608;2024-02-15T13:13:07;1.13;;;0.95;;
80578;SDS011;69939;52.402;6.608;2024-02-15T13:15:36;0.63;;;0.57;;
80578;SDS011;69939;52.402;6.608;2024-02-15T13:18:06;4.28;;;1.10;;
80578;SDS011;69939;52.402;6.608;2024-02-15T13:20:39;3.42;;;2.05;;
80578;SDS011;69939;52.402;6.608;2024-02-15T13:23:11;0.95;;;0.90;;
80578;SDS011;69939;52.402;6.608;2024-02-15T13:25:48;2.63;;;0.93;;
80578;SDS011;69939;52.402;6.608;2024-02-15T13:28:18;2.75;;;1.40;;
80578;SDS011;69939;52.402;6.608;2024-02-15T13:30:48;1.75;;;1.10;;
80578;SDS011;69939;52.402;6.608;2024-02-15T13:33:19;3.75;;;1.63;;
80578;SDS011;69939;52.402;6.608;2024-02-15T13:38:20;5.50;;;1.42;;
80578;SDS011;69939;52.402;6.608;2024-02-15T13:40:51;2.00;;;1.38;;
80578;SDS011;69939;52.402;6.608;2024-02-15T13:43:22;1.33;;;1.23;;
80578;SDS011;69939;52.402;6.608;2024-02-15T13:45:51;2.70;;;1.83;;
80578;SDS011;69939;52.402;6.608;2024-02-15T13:48:21;3.92;;;1.80;;
80578;SDS011;69939;52.402;6.608;2024-02-15T13:50:51;1.90;;;1.33;;
80578;SDS011;69939;52.402;6.608;2024-02-15T13:53:23;3.72;;;1.17;;
80578;SDS011;69939;52.402;6.608;2024-02-15T13:55:53;2.92;;;1.30;;
80578;SDS011;69939;52.402;6.608;2024-02-15T13:58:23;2.15;;;1.52;;
80578;SDS011;69939;52.402;6.608;2024-02-15T14:00:53;2.22;;;1.42;;
80578;SDS011;69939;52.402;6.608;2024-02-15T14:03:22;3.25;;;1.90;;
80578;SDS011;69939;52.402;6.608;2024-02-15T14:05:52;3.00;;;1.40;;
80578;SDS011;69939;52.402;6.608;2024-02-15T14:08:25;5.43;;;2.13;;
80578;SDS011;69939;52.402;6.608;2024-02-15T14:10:54;2.50;;;1.80;;
80578;SDS011;69939;52.402;6.608;2024-02-15T14:13:24;4.72;;;1.85;;
80578;SDS011;69939;52.402;6.608;2024-02-15T14:15:55;2.35;;;1.20;;
80578;SDS011;69939;52.402;6.608;2024-02-15T14:18:25;5.95;;;1.88;;
80578;SDS011;69939;52.402;6.608;2024-02-15T14:23:28;6.53;;;2.05;;
80578;SDS011;69939;52.402;6.608;2024-02-15T14:26:06;4.10;;;1.58;;
80578;SDS011;69939;52.402;6.608;2024-02-15T14:28:36;2.75;;;1.52;;
80578;SDS011;69939;52.402;6.608;2024-02-15T14:31:06;3.28;;;1.48;;
80578;SDS011;69939;52.402;6.608;2024-02-15T14:33:50;4.15;;;1.58;;
80578;SDS011;69939;52.402;6.608;2024-02-15T14:36:19;1.80;;;1.58;;
80578;SDS011;69939;52.402;6.608;2024-02-15T14:38:52;4.97;;;1.98;;
80578;SDS011;69939;52.402;6.608;2024-02-15T14:43:53;5.15;;;1.50;;
80578;SDS011;69939;52.402;6.608;2024-02-15T14:46:23;4.57;;;1.42;;
80578;SDS011;69939;52.402;6.608;2024-02-15T14:48:52;4.20;;;1.58;;
80578;SDS011;69939;52.402;6.608;2024-02-15T14:51:22;4.03;;;1.33;;
80578;SDS011;69939;52.402;6.608;2024-02-15T14:53:52;2.97;;;1.40;;
80578;SDS011;69939;52.402;6.608;2024-02-15T14:56:25;2.05;;;1.52;;
80578;SDS011;69939;52.402;6.608;2024-02-15T14:58:54;5.25;;;1.58;;
80578;SDS011;69939;52.402;6.608;2024-02-15T15:01:29;4.47;;;1.65;;
80578;SDS011;69939;52.402;6.608;2024-02-15T15:04:00;4.88;;;1.60;;
80578;SDS011;69939;52.402;6.608;2024-02-15T15:06:33;4.40;;;1.70;;
80578;SDS011;69939;52.402;6.608;2024-02-15T15:09:14;4.18;;;1.70;;
80578;SDS011;69939;52.402;6.608;2024-02-15T15:11:55;3.90;;;1.42;;
80578;SDS011;69939;52.402;6.608;2024-02-15T15:14:36;4.53;;;1.80;;
80578;SDS011;69939;52.402;6.608;2024-02-15T15:17:09;3.42;;;1.77;;
80578;SDS011;69939;52.402;6.608;2024-02-15T15:19:39;3.08;;;1.63;;
80578;SDS011;69939;52.402;6.608;2024-02-15T15:22:08;2.92;;;1.58;;
80578;SDS011;69939;52.402;6.608;2024-02-15T15:24:38;2.88;;;1.70;;
80578;SDS011;69939;52.402;6.608;2024-02-15T15:27:08;4.97;;;1.75;;
80578;SDS011;69939;52.402;6.608;2024-02-15T15:29:38;3.22;;;1.48;;
80578;SDS011;69939;52.402;6.608;2024-02-15T15:32:10;3.58;;;1.67;;
80578;SDS011;69939;52.402;6.608;2024-02-15T15:34:40;3.80;;;1.40;;
80578;SDS011;69939;52.402;6.608;2024-02-15T15:37:10;4.70;;;1.65;;
80578;SDS011;69939;52.402;6.608;2024-02-15T15:39:41;8.35;;;1.70;;
80578;SDS011;69939;52.402;6.608;2024-02-15T15:42:10;5.05;;;1.58;;
80578;SDS011;69939;52.402;6.608;2024-02-15T15:44:40;3.20;;;1.85;;
80578;SDS011;69939;52.402;6.608;2024-02-15T15:47:12;3.45;;;2.00;;
80578;SDS011;69939;52.402;6.608;2024-02-15T15:49:42;4.80;;;2.13;;
80578;SDS011;69939;52.402;6.608;2024-02-15T15:52:11;4.35;;;1.88;;
80578;SDS011;69939;52.402;6.608;2024-02-15T15:54:41;3.72;;;2.10;;
80578;SDS011;69939;52.402;6.608;2024-02-15T15:57:10;4.68;;;2.60;;
80578;SDS011;69939;52.402;6.608;2024-02-15T15:59:40;8.18;;;3.95;;
80578;SDS011;69939;52.402;6.608;2024-02-15T16:02:12;8.40;;;4.00;;
80578;SDS011;69939;52.402;6.608;2024-02-15T16:04:43;5.28;;;3.25;;
80578;SDS011;69939;52.402;6.608;2024-02-15T16:07:13;4.82;;;2.83;;
80578;SDS011;69939;52.402;6.608;2024-02-15T16:09:42;7.90;;;3.00;;
80578;SDS011;69939;52.402;6.608;2024-02-15T16:12:13;3.75;;;2.42;;
80578;SDS011;69939;52.402;6.608;2024-02-15T16:14:44;5.60;;;2.83;;